createdAt,value
2016-05-08T00:00:11.507Z,1006.05
2016-05-08T00:01:11.541Z,1006.06
2016-05-08T00:02:11.574Z,1006.1
2016-05-08T00:03:11.609Z,1006.09
2016-05-08T00:04:11.658Z,1006.1
2016-05-08T00:05:11.693Z,1006.08
2016-05-08T00:06:11.742Z,1006.1
2016-05-08T00:07:11.776Z,1006.07
2016-05-08T00:08:11.810Z,1006.09
2016-05-08T00:09:11.843Z,1006.05
2016-05-08T00:10:11.878Z,1006.08
2016-05-08T00:11:11.927Z,1006.04
2016-05-08T00:12:11.961Z,1006.07
2016-05-08T00:13:11.995Z,1006.08
2016-05-08T00:14:12.045Z,1006.1
2016-05-08T00:15:12.078Z,1006.09
2016-05-08T00:16:12.112Z,1006.11
2016-05-08T00:17:12.147Z,1006.11
2016-05-08T00:18:12.196Z,1006.09
2016-05-08T00:19:12.230Z,1006.1
2016-05-08T00:20:12.264Z,1006.13
2016-05-08T00:21:12.297Z,1006.11
2016-05-08T00:22:12.347Z,1006.14
2016-05-08T00:23:12.382Z,1006.11
2016-05-08T00:24:12.422Z,1006.14
2016-05-08T00:25:12.457Z,1006.17
2016-05-08T00:26:12.490Z,1006.14
2016-05-08T00:27:12.524Z,1006.09
2016-05-08T00:28:12.573Z,1006.13
2016-05-08T00:29:12.608Z,1006.13
2016-05-08T00:30:12.642Z,1006.13
2016-05-08T00:31:12.691Z,1006.1
2016-05-08T00:32:12.726Z,1006.1
2016-05-08T00:33:12.759Z,1006.09
2016-05-08T00:34:12.792Z,1006.11
2016-05-08T00:35:12.842Z,1006.09
2016-05-08T00:36:12.876Z,1006.09
2016-05-08T00:37:12.911Z,1006.07
2016-05-08T00:38:12.945Z,1006.05
2016-05-08T00:39:12.994Z,1006.07
2016-05-08T00:40:13.028Z,1006.07
2016-05-08T00:41:13.061Z,1006.06
2016-05-08T00:42:13.111Z,1006.09
2016-05-08T00:43:13.145Z,1006.04
2016-05-08T00:44:13.180Z,1006.07
2016-05-08T00:45:13.213Z,1006.06
2016-05-08T00:46:13.247Z,1006.07
2016-05-08T00:47:13.281Z,1006.08
2016-05-08T00:48:13.331Z,1006.05
2016-05-08T00:49:13.364Z,1006.04
2016-05-08T00:50:13.399Z,1006.04
2016-05-08T00:51:13.448Z,1006.05
2016-05-08T00:52:13.482Z,1006.04
2016-05-08T00:53:13.515Z,1006.05
2016-05-08T00:54:13.550Z,1006.08
2016-05-08T00:55:13.599Z,1006.04
2016-05-08T00:56:13.633Z,1006.04
2016-05-08T00:57:13.682Z,1006.02
2016-05-08T00:58:13.701Z,1006.03
2016-05-08T00:59:13.750Z,1006.06
2016-05-08T01:00:13.785Z,1006.03
2016-05-08T01:01:13.819Z,1006.07
2016-05-08T01:02:13.853Z,1006.02
2016-05-08T01:03:13.901Z,1006.03
2016-05-08T01:04:13.937Z,1006.04
2016-05-08T01:05:13.970Z,1006.03
2016-05-08T01:06:14.004Z,1006.01
2016-05-08T01:07:14.054Z,1006.07
2016-05-08T01:08:14.087Z,1006.07
2016-05-08T01:09:14.121Z,1006.06
2016-05-08T01:10:14.155Z,1006.07
2016-05-08T01:11:14.205Z,1006.08
2016-05-08T01:12:14.239Z,1006.09
2016-05-08T01:13:14.320Z,1006.1
2016-05-08T01:14:14.306Z,1006.1
2016-05-08T01:15:14.356Z,1006.11
2016-05-08T01:16:14.391Z,1006.1
2016-05-08T01:17:14.425Z,1006.15
2016-05-08T01:18:14.458Z,1006.14
2016-05-08T01:19:14.508Z,1006.13
2016-05-08T01:20:14.541Z,1006.15
2016-05-08T01:21:14.575Z,1006.18
2016-05-08T01:22:14.610Z,1006.19
2016-05-08T01:23:14.660Z,1006.16
2016-05-08T01:24:14.693Z,1006.18
2016-05-08T01:25:14.728Z,1006.21
2016-05-08T01:26:14.761Z,1006.18
2016-05-08T01:27:14.796Z,1006.17
2016-05-08T01:28:14.844Z,1006.21
2016-05-08T01:29:14.880Z,1006.16
2016-05-08T01:30:14.913Z,1006.21
2016-05-08T01:31:14.947Z,1006.19
2016-05-08T01:32:14.996Z,1006.23
2016-05-08T01:33:15.031Z,1006.2
2016-05-08T01:34:15.080Z,1006.22
2016-05-08T01:35:15.099Z,1006.2
2016-05-08T01:36:15.132Z,1006.25
2016-05-08T01:37:15.182Z,1006.2
2016-05-08T01:38:15.215Z,1006.24
2016-05-08T01:39:15.250Z,1006.23
2016-05-08T01:40:15.284Z,1006.25
2016-05-08T01:41:15.334Z,1006.25
2016-05-08T01:42:15.367Z,1006.24
2016-05-08T01:43:15.401Z,1006.25
2016-05-08T01:44:15.435Z,1006.24
2016-05-08T01:45:15.485Z,1006.22
2016-05-08T01:46:15.518Z,1006.22
2016-05-08T01:47:15.553Z,1006.3
2016-05-08T01:48:15.587Z,1006.22
2016-05-08T01:49:15.620Z,1006.24
2016-05-08T01:50:15.670Z,1006.28
2016-05-08T01:51:15.704Z,1006.22
2016-05-08T01:52:15.738Z,1006.25
2016-05-08T01:53:15.772Z,1006.22
2016-05-08T01:54:15.822Z,1006.24
2016-05-08T01:55:15.856Z,1006.22
2016-05-08T01:56:15.889Z,1006.23
2016-05-08T01:57:15.923Z,1006.23
2016-05-08T01:58:15.972Z,1006.21
2016-05-08T01:59:16.007Z,1006.25
2016-05-08T02:00:16.041Z,1006.24
2016-05-08T02:01:16.122Z,1006.23
2016-05-08T02:02:16.125Z,1006.26
2016-05-08T02:03:16.143Z,1006.25
2016-05-08T02:04:16.191Z,1006.27
2016-05-08T02:05:16.226Z,1006.25
2016-05-08T02:06:16.260Z,1006.25
2016-05-08T02:07:16.294Z,1006.18
2016-05-08T02:08:16.344Z,1006.25
2016-05-08T02:09:16.377Z,1006.22
2016-05-08T02:10:16.411Z,1006.25
2016-05-08T02:11:16.446Z,1006.2
2016-05-08T02:12:16.496Z,1006.25
2016-05-08T02:13:16.529Z,1006.21
2016-05-08T02:14:16.548Z,1006.2
2016-05-08T02:15:16.596Z,1006.22
2016-05-08T02:16:16.631Z,1006.21
2016-05-08T02:17:16.664Z,1006.23
2016-05-08T02:18:16.715Z,1006.24
2016-05-08T02:19:16.748Z,1006.21
2016-05-08T02:20:16.782Z,1006.22
2016-05-08T02:21:16.816Z,1006.21
2016-05-08T02:22:16.850Z,1006.24
2016-05-08T02:23:16.900Z,1006.2
2016-05-08T02:24:16.934Z,1006.25
2016-05-08T02:25:16.967Z,1006.24
2016-05-08T02:26:17.017Z,1006.24
2016-05-08T02:27:17.035Z,1006.23
2016-05-08T02:28:17.085Z,1006.22
2016-05-08T02:29:17.119Z,1006.26
2016-05-08T02:30:17.153Z,1006.21
2016-05-08T02:31:17.186Z,1006.25
2016-05-08T02:32:17.221Z,1006.19
2016-05-08T02:33:17.270Z,1006.24
2016-05-08T02:34:17.304Z,1006.2
2016-05-08T02:35:17.338Z,1006.23
2016-05-08T02:36:17.372Z,1006.24
2016-05-08T02:37:17.405Z,1006.19
2016-05-08T02:38:17.455Z,1006.2
2016-05-08T02:39:17.490Z,1006.25
2016-05-08T02:40:17.523Z,1006.22
2016-05-08T02:41:17.557Z,1006.22
2016-05-08T02:42:17.624Z,1006.2
2016-05-08T02:43:17.720Z,1006.24
2016-05-08T02:44:17.801Z,1006.28
2016-05-08T02:45:17.884Z,1006.28
2016-05-08T02:46:17.965Z,1006.3
2016-05-08T02:47:18.026Z,1006.29
2016-05-08T02:48:18.094Z,1006.28
2016-05-08T02:49:18.144Z,1006.31
2016-05-08T02:50:18.196Z,1006.31
2016-05-08T02:51:18.247Z,1006.32
2016-05-08T02:52:18.290Z,1006.34
2016-05-08T02:53:18.330Z,1006.33
2016-05-08T02:54:18.387Z,1006.33
2016-05-08T02:55:18.426Z,1006.33
2016-05-08T02:56:18.466Z,1006.29
2016-05-08T02:57:18.504Z,1006.33
2016-05-08T02:58:18.556Z,1006.33
2016-05-08T02:59:18.592Z,1006.3
2016-05-08T03:00:18.628Z,1006.3
2016-05-08T03:01:18.665Z,1006.35
2016-05-08T03:02:18.700Z,1006.32
2016-05-08T03:03:18.750Z,1006.34
2016-05-08T03:04:18.784Z,1006.3
2016-05-08T03:05:18.819Z,1006.31
2016-05-08T03:06:18.854Z,1006.33
2016-05-08T03:07:18.889Z,1006.29
2016-05-08T03:08:18.939Z,1006.32
2016-05-08T03:09:18.973Z,1006.34
2016-05-08T03:10:19.007Z,1006.36
2016-05-08T03:11:19.041Z,1006.3
2016-05-08T03:12:19.091Z,1006.34
2016-05-08T03:13:19.110Z,1006.36
2016-05-08T03:14:19.143Z,1006.34
2016-05-08T03:15:19.177Z,1006.33
2016-05-08T03:16:19.226Z,1006.35
2016-05-08T03:17:19.261Z,1006.36
2016-05-08T03:18:19.295Z,1006.39
2016-05-08T03:19:19.329Z,1006.36
2016-05-08T03:20:19.362Z,1006.39
2016-05-08T03:21:19.413Z,1006.39
2016-05-08T03:22:19.446Z,1006.36
2016-05-08T03:23:19.481Z,1006.38
2016-05-08T03:24:19.514Z,1006.36
2016-05-08T03:25:19.548Z,1006.36
2016-05-08T03:26:19.581Z,1006.39
2016-05-08T03:27:19.632Z,1006.37
2016-05-08T03:28:19.681Z,1006.35
2016-05-08T03:29:19.700Z,1006.4
2016-05-08T03:30:19.733Z,1006.36
2016-05-08T03:31:19.784Z,1006.38
2016-05-08T03:32:19.816Z,1006.37
2016-05-08T03:33:19.851Z,1006.41
2016-05-08T03:34:19.885Z,1006.41
2016-05-08T03:35:19.918Z,1006.41
2016-05-08T03:36:19.953Z,1006.4
2016-05-08T03:37:19.986Z,1006.42
2016-05-08T03:38:20.021Z,1006.39
2016-05-08T03:39:20.069Z,1006.44
2016-05-08T03:40:20.104Z,1006.42
2016-05-08T03:41:20.154Z,1006.46
2016-05-08T03:42:20.171Z,1006.46
2016-05-08T03:43:20.206Z,1006.44
2016-05-08T03:44:20.240Z,1006.43
2016-05-08T03:45:20.274Z,1006.44
2016-05-08T03:46:20.307Z,1006.48
2016-05-08T03:47:20.357Z,1006.47
2016-05-08T03:48:20.391Z,1006.47
2016-05-08T03:49:20.426Z,1006.48
2016-05-08T03:50:20.459Z,1006.46
2016-05-08T03:51:20.493Z,1006.46
2016-05-08T03:52:20.542Z,1006.5
2016-05-08T03:53:20.576Z,1006.48
2016-05-08T03:54:20.610Z,1006.52
2016-05-08T03:55:20.645Z,1006.52
2016-05-08T03:56:20.678Z,1006.48
2016-05-08T03:57:20.775Z,1006.5
2016-05-08T03:58:20.762Z,1006.52
2016-05-08T03:59:20.780Z,1006.5
2016-05-08T04:00:20.830Z,1006.5
2016-05-08T04:01:20.864Z,1006.52
2016-05-08T04:02:20.898Z,1006.52
2016-05-08T04:03:20.931Z,1006.58
2016-05-08T04:04:20.966Z,1006.57
2016-05-08T04:05:20.999Z,1006.55
2016-05-08T04:06:21.049Z,1006.59
2016-05-08T04:07:21.083Z,1006.59
2016-05-08T04:08:21.117Z,1006.57
2016-05-08T04:09:21.150Z,1006.57
2016-05-08T04:10:21.200Z,1006.57
2016-05-08T04:11:21.250Z,1006.55
2016-05-08T04:12:21.269Z,1006.56
2016-05-08T04:13:21.302Z,1006.6
2016-05-08T04:14:21.336Z,1006.57
2016-05-08T04:15:21.370Z,1006.6
2016-05-08T04:16:21.404Z,1006.56
2016-05-08T04:17:21.454Z,1006.6
2016-05-08T04:18:21.472Z,1006.59
2016-05-08T04:19:21.521Z,1006.61
2016-05-08T04:20:21.555Z,1006.62
2016-05-08T04:21:21.590Z,1006.59
2016-05-08T04:22:21.624Z,1006.6
2016-05-08T04:23:21.657Z,1006.62
2016-05-08T04:24:21.706Z,1006.65
2016-05-08T04:25:21.740Z,1006.61
2016-05-08T04:26:21.775Z,1006.63
2016-05-08T04:27:21.809Z,1006.64
2016-05-08T04:28:21.843Z,1006.63
2016-05-08T04:29:21.876Z,1006.65
2016-05-08T04:30:21.925Z,1006.7
2016-05-08T04:31:21.959Z,1006.66
2016-05-08T04:32:22.026Z,1006.66
2016-05-08T04:33:22.028Z,1006.72
2016-05-08T04:34:22.061Z,1006.72
2016-05-08T04:35:22.095Z,1006.74
2016-05-08T04:36:22.129Z,1006.76
2016-05-08T04:37:22.180Z,1006.76
2016-05-08T04:38:22.213Z,1006.73
2016-05-08T04:39:22.247Z,1006.76
2016-05-08T04:40:22.280Z,1006.78
2016-05-08T04:41:22.316Z,1006.8
2016-05-08T04:42:22.927Z,1006.79
2016-05-08T04:43:22.398Z,1006.81
2016-05-08T04:44:22.432Z,1006.79
2016-05-08T04:45:22.467Z,1006.81
2016-05-08T04:46:22.515Z,1006.85
2016-05-08T04:47:22.550Z,1006.83
2016-05-08T04:48:22.584Z,1006.8
2016-05-08T04:49:22.617Z,1006.82
2016-05-08T04:50:22.651Z,1006.83
2016-05-08T04:51:22.686Z,1006.83
2016-05-08T04:52:22.735Z,1006.82
2016-05-08T04:53:22.769Z,1006.84
2016-05-08T04:54:22.803Z,1006.85
2016-05-08T04:55:22.853Z,1006.86
2016-05-08T04:56:22.886Z,1006.85
2016-05-08T04:57:22.921Z,1006.86
2016-05-08T04:58:22.954Z,1006.87
2016-05-08T04:59:22.988Z,1006.86
2016-05-08T05:00:23.037Z,1006.88
2016-05-08T05:01:23.072Z,1006.87
2016-05-08T05:02:23.106Z,1006.86
2016-05-08T05:03:23.140Z,1006.93
2016-05-08T05:04:23.189Z,1006.89
2016-05-08T05:05:23.223Z,1006.9
2016-05-08T05:06:23.257Z,1006.9
2016-05-08T05:07:23.291Z,1006.95
2016-05-08T05:08:23.341Z,1006.9
2016-05-08T05:09:23.375Z,1006.95
2016-05-08T05:10:23.408Z,1006.94
2016-05-08T05:11:23.442Z,1006.99
2016-05-08T05:12:23.492Z,1006.98
2016-05-08T05:13:23.526Z,1006.98
2016-05-08T05:14:23.560Z,1006.96
2016-05-08T05:15:23.594Z,1007.01
2016-05-08T05:16:23.627Z,1007
2016-05-08T05:17:23.677Z,1007.02
2016-05-08T05:18:23.711Z,1007.02
2016-05-08T05:19:23.745Z,1007.03
2016-05-08T05:20:23.779Z,1007.05
2016-05-08T05:21:23.829Z,1007.05
2016-05-08T05:22:23.863Z,1007.06
2016-05-08T05:23:23.896Z,1007.03
2016-05-08T05:24:23.931Z,1007.06
2016-05-08T05:25:23.965Z,1007.04
2016-05-08T05:26:24.015Z,1007.02
2016-05-08T05:27:24.048Z,1007.03
2016-05-08T05:28:24.082Z,1007.05
2016-05-08T05:29:24.131Z,1007.03
2016-05-08T05:30:24.165Z,1007.09
2016-05-08T05:31:24.215Z,1007.11
2016-05-08T05:32:24.234Z,1007.13
2016-05-08T05:33:24.267Z,1007.12
2016-05-08T05:34:24.333Z,1007.13
2016-05-08T05:35:24.351Z,1007.14
2016-05-08T05:36:24.385Z,1007.15
2016-05-08T05:37:24.434Z,1007.18
2016-05-08T05:38:24.468Z,1007.15
2016-05-08T05:39:24.502Z,1007.21
2016-05-08T05:40:24.536Z,1007.15
2016-05-08T05:41:24.570Z,1007.13
2016-05-08T05:42:24.620Z,1007.15
2016-05-08T05:43:24.653Z,1007.14
2016-05-08T05:44:24.687Z,1007.13
2016-05-08T05:45:24.737Z,1007.11
2016-05-08T05:46:24.772Z,1007.18
2016-05-08T05:47:24.805Z,1007.14
2016-05-08T05:48:24.839Z,1007.17
2016-05-08T05:49:24.873Z,1007.17
2016-05-08T05:50:24.907Z,1007.16
2016-05-08T05:51:24.956Z,1007.16
2016-05-08T05:52:24.991Z,1007.16
2016-05-08T05:53:25.024Z,1007.14
2016-05-08T05:54:25.074Z,1007.15
2016-05-08T05:55:25.107Z,1007.19
2016-05-08T05:56:25.157Z,1007.17
2016-05-08T05:57:25.456Z,1007.15
2016-05-08T05:58:25.225Z,1007.17
2016-05-08T05:59:25.259Z,1007.18
2016-05-08T06:00:25.293Z,1007.16
2016-05-08T06:01:25.342Z,1007.17
2016-05-08T06:02:25.376Z,1007.2
2016-05-08T06:03:25.411Z,1007.25
2016-05-08T06:04:25.445Z,1007.21
2016-05-08T06:05:25.495Z,1007.3
2016-05-08T06:06:25.528Z,1007.29
2016-05-08T06:07:25.561Z,1007.3
2016-05-08T06:08:25.611Z,1007.3
2016-05-08T06:09:25.645Z,1007.31
2016-05-08T06:10:25.679Z,1007.31
2016-05-08T06:11:25.714Z,1007.31
2016-05-08T06:12:26.153Z,1007.33
2016-05-08T06:13:25.797Z,1007.31
2016-05-08T06:14:25.831Z,1007.38
2016-05-08T06:15:25.864Z,1007.37
2016-05-08T06:16:25.914Z,1007.41
2016-05-08T06:17:25.948Z,1007.42
2016-05-08T06:18:25.997Z,1007.43
2016-05-08T06:19:26.016Z,1007.43
2016-05-08T06:20:26.066Z,1007.42
2016-05-08T06:21:26.099Z,1007.4
2016-05-08T06:22:26.133Z,1007.41
2016-05-08T06:23:26.182Z,1007.44
2016-05-08T06:24:26.217Z,1007.49
2016-05-08T06:25:26.251Z,1007.46
2016-05-08T06:26:26.284Z,1007.46
2016-05-08T06:27:26.335Z,1007.44
2016-05-08T06:28:26.368Z,1007.44
2016-05-08T06:29:26.418Z,1007.42
2016-05-08T06:30:26.436Z,1007.48
2016-05-08T06:31:26.486Z,1007.51
2016-05-08T06:32:26.520Z,1007.49
2016-05-08T06:33:26.553Z,1007.49
2016-05-08T06:34:26.587Z,1007.51
2016-05-08T06:35:26.637Z,1007.46
2016-05-08T06:36:26.671Z,1007.51
2016-05-08T06:37:26.705Z,1007.51
2016-05-08T06:38:26.739Z,1007.54
2016-05-08T06:39:26.788Z,1007.56
2016-05-08T06:40:26.822Z,1007.55
2016-05-08T06:41:26.856Z,1007.58
2016-05-08T06:42:26.891Z,1007.54
2016-05-08T06:43:26.940Z,1007.56
2016-05-08T06:44:26.974Z,1007.59
2016-05-08T06:45:27.008Z,1007.66
2016-05-08T06:46:27.058Z,1007.62
2016-05-08T06:47:27.091Z,1007.62
2016-05-08T06:48:27.125Z,1007.62
2016-05-08T06:49:27.175Z,1007.6
2016-05-08T06:50:27.208Z,1007.57
2016-05-08T06:51:27.243Z,1007.64
2016-05-08T06:52:27.277Z,1007.61
2016-05-08T06:53:27.327Z,1007.62
2016-05-08T06:54:27.360Z,1007.62
2016-05-08T06:55:27.394Z,1007.64
2016-05-08T06:56:27.428Z,1007.62
2016-05-08T06:57:27.477Z,1007.63
2016-05-08T06:58:27.511Z,1007.63
2016-05-08T06:59:27.545Z,1007.6
2016-05-08T07:00:27.595Z,1007.62
2016-05-08T07:01:27.629Z,1007.64
2016-05-08T07:02:27.663Z,1007.64
2016-05-08T07:03:27.697Z,1007.62
2016-05-08T07:04:27.746Z,1007.62
2016-05-08T07:05:27.781Z,1007.59
2016-05-08T07:06:27.814Z,1007.7
2016-05-08T07:07:27.864Z,1007.62
2016-05-08T07:08:27.897Z,1007.6
2016-05-08T07:09:27.931Z,1007.6
2016-05-08T07:10:27.966Z,1007.63
2016-05-08T07:11:28.014Z,1007.63
2016-05-08T07:12:28.049Z,1007.61
2016-05-08T07:13:28.083Z,1007.6
2016-05-08T07:14:28.133Z,1007.66
2016-05-08T07:15:28.167Z,1007.63
2016-05-08T07:16:28.200Z,1007.6
2016-05-08T07:17:28.250Z,1007.65
2016-05-08T07:18:28.283Z,1007.61
2016-05-08T07:19:28.318Z,1007.61
2016-05-08T07:20:28.368Z,1007.6
2016-05-08T07:21:28.401Z,1007.63
2016-05-08T07:22:28.436Z,1007.62
2016-05-08T07:23:28.469Z,1007.67
2016-05-08T07:24:28.519Z,1007.62
2016-05-08T07:25:28.553Z,1007.68
2016-05-08T07:26:28.587Z,1007.66
2016-05-08T07:27:28.637Z,1007.65
2016-05-08T07:28:28.671Z,1007.72
2016-05-08T07:29:28.720Z,1007.71
2016-05-08T07:30:28.753Z,1007.69
2016-05-08T07:31:28.788Z,1007.71
2016-05-08T07:32:28.821Z,1007.71
2016-05-08T07:33:28.871Z,1007.69
2016-05-08T07:34:28.906Z,1007.69
2016-05-08T07:35:28.939Z,1007.71
2016-05-08T07:36:28.989Z,1007.69
2016-05-08T07:37:29.023Z,1007.68
2016-05-08T07:38:29.057Z,1007.73
2016-05-08T07:39:29.106Z,1007.73
2016-05-08T07:40:29.139Z,1007.69
2016-05-08T07:41:29.175Z,1007.68
2016-05-08T07:42:29.223Z,1007.69
2016-05-08T07:43:29.258Z,1007.74
2016-05-08T07:44:29.291Z,1007.73
2016-05-08T07:45:29.325Z,1007.72
2016-05-08T07:46:29.375Z,1007.79
2016-05-08T07:47:29.425Z,1007.8
2016-05-08T07:48:29.458Z,1007.74
2016-05-08T07:49:29.491Z,1007.8
2016-05-08T07:50:29.526Z,1007.8
2016-05-08T07:51:29.576Z,1007.84
2016-05-08T07:52:29.610Z,1007.84
2016-05-08T07:53:29.644Z,1007.89
2016-05-08T07:54:29.693Z,1007.85
2016-05-08T07:55:29.727Z,1007.8
2016-05-08T07:56:29.777Z,1007.85
2016-05-08T07:57:29.810Z,1007.82
2016-05-08T07:58:29.860Z,1007.83
2016-05-08T07:59:29.894Z,1007.83
2016-05-08T08:00:29.943Z,1007.87
2016-05-08T08:01:29.993Z,1007.93
2016-05-08T08:02:30.027Z,1007.91
2016-05-08T08:03:30.076Z,1007.95
2016-05-08T08:04:30.111Z,1007.95
2016-05-08T08:05:30.160Z,1007.92
2016-05-08T08:06:30.195Z,1007.89
2016-05-08T08:07:30.244Z,1007.93
2016-05-08T08:08:30.293Z,1007.89
2016-05-08T08:09:30.328Z,1007.85
2016-05-08T08:10:30.377Z,1007.86
2016-05-08T08:11:30.426Z,1007.87
2016-05-08T08:12:30.476Z,1007.87
2016-05-08T08:13:30.525Z,1007.93
2016-05-08T08:14:30.559Z,1007.88
2016-05-08T08:15:30.609Z,1007.9
2016-05-08T08:16:30.659Z,1007.92
2016-05-08T08:17:30.708Z,1007.92
2016-05-08T08:18:30.742Z,1007.94
2016-05-08T08:19:30.808Z,1007.92
2016-05-08T08:20:30.841Z,1007.97
2016-05-08T08:21:30.875Z,1007.99
2016-05-08T08:22:30.941Z,1008
2016-05-08T08:23:30.974Z,1008.05
2016-05-08T08:24:31.024Z,1007.99
2016-05-08T08:25:31.074Z,1008.04
2016-05-08T08:26:31.123Z,1008.05
2016-05-08T08:27:31.173Z,1007.98
2016-05-08T08:28:31.222Z,1007.98
2016-05-08T08:29:31.272Z,1007.93
2016-05-08T08:30:31.321Z,1008.01
2016-05-08T08:31:31.355Z,1007.92
2016-05-08T08:32:31.405Z,1007.96
2016-05-08T08:33:31.454Z,1007.97
2016-05-08T08:34:31.504Z,1007.96
2016-05-08T08:35:31.553Z,1008.02
2016-05-08T08:36:31.603Z,1008.02
2016-05-08T08:37:31.653Z,1008.01
2016-05-08T08:38:31.703Z,1008
2016-05-08T08:39:31.751Z,1008.04
2016-05-08T08:40:31.801Z,1008.04
2016-05-08T08:41:31.851Z,1008.04
2016-05-08T08:42:31.901Z,1008.05
2016-05-08T08:43:31.950Z,1008.06
2016-05-08T08:44:31.999Z,1008.08
2016-05-08T08:45:32.033Z,1008.03
2016-05-08T08:46:32.083Z,1008.03
2016-05-08T08:47:32.133Z,1008.1
2016-05-08T08:48:32.182Z,1008.01
2016-05-08T08:49:32.232Z,1008.02
2016-05-08T08:50:32.281Z,1008
2016-05-08T08:51:32.331Z,1007.94
2016-05-08T08:52:32.380Z,1007.97
2016-05-08T08:53:32.430Z,1008.01
2016-05-08T08:54:32.463Z,1007.97
2016-05-08T08:55:32.513Z,1007.99
2016-05-08T08:56:32.563Z,1008.05
2016-05-08T08:57:33.034Z,1008.06
2016-05-08T08:58:32.663Z,1008.07
2016-05-08T08:59:32.712Z,1008.03
2016-05-08T09:00:32.762Z,1008.01
2016-05-08T09:01:32.811Z,1007.98
2016-05-08T09:02:32.860Z,1008.01
2016-05-08T09:03:32.910Z,1007.98
2016-05-08T09:04:32.943Z,1007.94
2016-05-08T09:05:33.009Z,1007.89
2016-05-08T09:06:33.043Z,1007.95
2016-05-08T09:07:33.092Z,1007.95
2016-05-08T09:08:33.143Z,1007.92
2016-05-08T09:09:33.192Z,1007.88
2016-05-08T09:10:33.225Z,1007.92
2016-05-08T09:11:33.276Z,1007.86
2016-05-08T09:12:33.325Z,1007.87
2016-05-08T09:13:33.375Z,1007.88
2016-05-08T09:14:33.424Z,1007.87
2016-05-08T09:15:33.458Z,1007.75
2016-05-08T09:16:33.523Z,1007.87
2016-05-08T09:17:33.557Z,1007.83
2016-05-08T09:18:33.606Z,1007.89
2016-05-08T09:19:33.655Z,1007.84
2016-05-08T09:20:33.691Z,1007.91
2016-05-08T09:21:33.740Z,1007.86
2016-05-08T09:22:33.789Z,1007.82
2016-05-08T09:23:33.839Z,1007.77
2016-05-08T09:24:33.888Z,1007.79
2016-05-08T09:25:33.938Z,1007.8
2016-05-08T09:26:33.988Z,1007.75
2016-05-08T09:27:34.037Z,1007.81
2016-05-08T09:28:34.071Z,1007.9
2016-05-08T09:29:34.121Z,1007.83
2016-05-08T09:30:34.171Z,1007.76
2016-05-08T09:31:34.220Z,1007.98
2016-05-08T09:32:34.269Z,1007.78
2016-05-08T09:33:34.318Z,1007.84
2016-05-08T09:34:34.369Z,1007.76
2016-05-08T09:35:34.418Z,1007.84
2016-05-08T09:36:34.467Z,1007.75
2016-05-08T09:37:34.517Z,1007.73
2016-05-08T09:38:34.567Z,1007.8
2016-05-08T09:39:34.617Z,1007.75
2016-05-08T09:40:34.665Z,1007.78
2016-05-08T09:41:34.715Z,1007.82
2016-05-08T09:42:34.765Z,1007.84
2016-05-08T09:43:34.814Z,1007.79
2016-05-08T09:44:34.864Z,1007.76
2016-05-08T09:45:34.913Z,1007.88
2016-05-08T09:46:34.963Z,1007.82
2016-05-08T09:47:35.029Z,1007.79
2016-05-08T09:48:35.062Z,1007.72
2016-05-08T09:49:35.112Z,1007.76
2016-05-08T09:50:35.161Z,1007.8
2016-05-08T09:51:35.211Z,1007.84
2016-05-08T09:52:35.261Z,1007.82
2016-05-08T09:53:35.310Z,1007.85
2016-05-08T09:54:35.360Z,1007.8
2016-05-08T09:55:35.409Z,1007.7
2016-05-08T09:56:35.459Z,1007.8
2016-05-08T09:57:36.008Z,1007.7
2016-05-08T09:58:35.558Z,1007.63
2016-05-08T09:59:35.608Z,1007.68
2016-05-08T10:00:35.657Z,1007.65
2016-05-08T10:01:35.707Z,1007.63
2016-05-08T10:02:35.756Z,1007.68
2016-05-08T10:03:35.806Z,1007.67
2016-05-08T10:04:35.855Z,1007.66
2016-05-08T10:05:35.905Z,1007.61
2016-05-08T10:06:35.954Z,1007.64
2016-05-08T10:07:36.004Z,1007.7
2016-05-08T10:08:36.054Z,1007.66
2016-05-08T10:09:36.103Z,1007.63
2016-05-08T10:10:36.153Z,1007.64
2016-05-08T10:11:36.202Z,1007.67
2016-05-08T10:12:36.251Z,1007.46
2016-05-08T10:13:36.318Z,1007.56
2016-05-08T10:14:36.350Z,1007.57
2016-05-08T10:15:36.417Z,1007.55
2016-05-08T10:16:36.466Z,1007.53
2016-05-08T10:17:36.515Z,1007.59
2016-05-08T10:18:36.565Z,1007.53
2016-05-08T10:19:36.614Z,1007.57
2016-05-08T10:20:36.664Z,1007.6
2016-05-08T10:21:36.714Z,1007.55
2016-05-08T10:22:36.763Z,1007.54
2016-05-08T10:23:36.823Z,1007.54
2016-05-08T10:24:36.873Z,1007.55
2016-05-08T10:25:36.923Z,1007.49
2016-05-08T10:26:36.972Z,1007.5
2016-05-08T10:27:37.053Z,1007.53
2016-05-08T10:28:37.086Z,1007.57
2016-05-08T10:29:37.121Z,1007.44
2016-05-08T10:30:37.171Z,1007.47
2016-05-08T10:31:37.220Z,1007.52
2016-05-08T10:32:37.269Z,1007.49
2016-05-08T10:33:37.335Z,1007.51
2016-05-08T10:34:37.385Z,1007.49
2016-05-08T10:35:37.434Z,1007.56
2016-05-08T10:36:37.483Z,1007.55
2016-05-08T10:37:37.532Z,1007.51
2016-05-08T10:38:37.582Z,1007.57
2016-05-08T10:39:37.632Z,1007.51
2016-05-08T10:40:37.681Z,1007.53
2016-05-08T10:41:37.731Z,1007.57
2016-05-08T10:42:38.312Z,1007.5
2016-05-08T10:43:37.831Z,1007.47
2016-05-08T10:44:37.895Z,1007.51
2016-05-08T10:45:37.945Z,1007.42
2016-05-08T10:46:37.995Z,1007.52
2016-05-08T10:47:38.045Z,1007.5
2016-05-08T10:48:38.094Z,1007.46
2016-05-08T10:49:38.143Z,1007.45
2016-05-08T10:50:38.193Z,1007.46
2016-05-08T10:51:38.243Z,1007.38
2016-05-08T10:52:38.308Z,1007.39
2016-05-08T10:53:38.358Z,1007.39
2016-05-08T10:54:38.406Z,1007.49
2016-05-08T10:55:38.456Z,1007.48
2016-05-08T10:56:38.506Z,1007.44
2016-05-08T10:57:38.900Z,1007.42
2016-05-08T10:58:38.605Z,1007.38
2016-05-08T10:59:38.655Z,1007.46
2016-05-08T11:00:38.705Z,1007.34
2016-05-08T11:01:38.769Z,1007.38
2016-05-08T11:02:38.819Z,1007.38
2016-05-08T11:03:38.868Z,1007.42
2016-05-08T11:04:38.918Z,1007.35
2016-05-08T11:05:38.982Z,1007.37
2016-05-08T11:06:39.017Z,1007.33
2016-05-08T11:07:39.067Z,1007.32
2016-05-08T11:08:39.132Z,1007.34
2016-05-08T11:09:39.196Z,1007.32
2016-05-08T11:10:39.231Z,1007.34
2016-05-08T11:11:39.281Z,1007.37
2016-05-08T11:12:39.330Z,1007.4
2016-05-08T11:13:39.395Z,1007.38
2016-05-08T11:14:39.445Z,1007.41
2016-05-08T11:15:39.495Z,1007.41
2016-05-08T11:16:39.545Z,1007.39
2016-05-08T11:17:39.594Z,1007.29
2016-05-08T11:18:39.643Z,1007.45
2016-05-08T11:19:39.709Z,1007.28
2016-05-08T11:20:39.758Z,1007.29
2016-05-08T11:21:39.808Z,1007.34
2016-05-08T11:22:39.856Z,1007.41
2016-05-08T11:23:39.922Z,1007.38
2016-05-08T11:24:39.972Z,1007.29
2016-05-08T11:25:40.022Z,1007.37
2016-05-08T11:26:40.071Z,1007.36
2016-05-08T11:27:40.245Z,1007.41
2016-05-08T11:28:40.170Z,1007.38
2016-05-08T11:29:40.235Z,1007.43
2016-05-08T11:30:40.285Z,1007.38
2016-05-08T11:31:40.334Z,1007.4
2016-05-08T11:32:40.384Z,1007.45
2016-05-08T11:33:40.434Z,1007.35
2016-05-08T11:34:40.483Z,1007.41
2016-05-08T11:35:40.549Z,1007.38
2016-05-08T11:36:40.598Z,1007.4
2016-05-08T11:37:40.647Z,1007.43
2016-05-08T11:38:40.697Z,1007.3
2016-05-08T11:39:40.762Z,1007.3
2016-05-08T11:40:40.812Z,1007.28
2016-05-08T11:41:40.862Z,1007.34
2016-05-08T11:42:41.285Z,1007.3
2016-05-08T11:43:40.960Z,1007.3
2016-05-08T11:44:41.010Z,1007.24
2016-05-08T11:45:41.059Z,1007.16
2016-05-08T11:46:41.109Z,1007.27
2016-05-08T11:47:41.173Z,1007.3
2016-05-08T11:48:41.256Z,1007.29
2016-05-08T11:49:41.348Z,1007.26
2016-05-08T11:50:41.439Z,1007.26
2016-05-08T11:51:41.531Z,1007.23
2016-05-08T11:52:41.637Z,1007.23
2016-05-08T11:53:41.708Z,1007.31
2016-05-08T11:54:41.773Z,1007.18
2016-05-08T11:55:41.837Z,1007.43
2016-05-08T11:56:41.902Z,1007.25
2016-05-08T11:57:41.981Z,1007.27
2016-05-08T11:58:42.055Z,1007.25
2016-05-08T11:59:42.094Z,1007.24
2016-05-08T12:00:42.149Z,1007.26
2016-05-08T12:01:42.220Z,1007.19
2016-05-08T12:02:42.274Z,1007.27
2016-05-08T12:03:42.327Z,1007.27
2016-05-08T12:04:42.378Z,1007.22
2016-05-08T12:05:42.430Z,1007.33
2016-05-08T12:06:42.497Z,1007.44
2016-05-08T12:07:42.548Z,1007.23
2016-05-08T12:08:42.614Z,1007.17